sensor_id;sensor_type;location;lat;lon;timestamp;temperature;humidity
9915;DHT22;4996;48.746;9.174;2023-05-07T00:01:16;17.10;99.90
9915;DHT22;4996;48.746;9.174;2023-05-07T00:03:42;17.20;99.90
9915;DHT22;4996;48.746;9.174;2023-05-07T00:06:07;17.10;99.90
9915;DHT22;4996;48.746;9.174;2023-05-07T00:08:33;17.10;99.90
9915;DHT22;4996;48.746;9.174;2023-05-07T00:10:58;17.10;99.90
9915;DHT22;4996;48.746;9.174;2023-05-07T00:13:24;17.00;99.90
9915;DHT22;4996;48.746;9.174;2023-05-07T00:15:49;17.00;99.90
9915;DHT22;4996;48.746;9.174;2023-05-07T00:18:15;17.00;99.90
9915;DHT22;4996;48.746;9.174;2023-05-07T00:20:41;17.00;99.90
9915;DHT22;4996;48.746;9.174;2023-05-07T00:23:06;17.00;99.90
9915;DHT22;4996;48.746;9.174;2023-05-07T00:25:32;16.90;99.90
9915;DHT22;4996;48.746;9.174;2023-05-07T00:27:57;16.90;99.90
9915;DHT22;4996;48.746;9.174;2023-05-07T00:30:28;16.90;99.90
9915;DHT22;4996;48.746;9.174;2023-05-07T00:32:53;16.90;99.90
9915;DHT22;4996;48.746;9.174;2023-05-07T00:35:19;16.90;99.90
9915;DHT22;4996;48.746;9.174;2023-05-07T00:37:44;16.90;99.90
9915;DHT22;4996;48.746;9.174;2023-05-07T00:40:10;16.90;99.90
9915;DHT22;4996;48.746;9.174;2023-05-07T00:42:36;16.80;99.90
9915;DHT22;4996;48.746;9.174;2023-05-07T00:45:03;16.80;99.90
9915;DHT22;4996;48.746;9.174;2023-05-07T00:47:28;16.80;99.90
9915;DHT22;4996;48.746;9.174;2023-05-07T00:49:54;16.70;99.90
9915;DHT22;4996;48.746;9.174;2023-05-07T00:52:20;16.70;99.90
9915;DHT22;4996;48.746;9.174;2023-05-07T00:54:47;16.70;99.90
9915;DHT22;4996;48.746;9.174;2023-05-07T00:57:13;16.60;99.90
9915;DHT22;4996;48.746;9.174;2023-05-07T00:59:40;16.60;99.90
9915;DHT22;4996;48.746;9.174;2023-05-07T01:02:06;16.60;99.90
9915;DHT22;4996;48.746;9.174;2023-05-07T01:04:32;16.60;99.90
9915;DHT22;4996;48.746;9.174;2023-05-07T01:06:58;16.60;99.90
9915;DHT22;4996;48.746;9.174;2023-05-07T01:09:25;16.60;99.90
9915;DHT22;4996;48.746;9.174;2023-05-07T01:11:51;16.50;99.90
9915;DHT22;4996;48.746;9.174;2023-05-07T01:14:17;16.60;99.90
9915;DHT22;4996;48.746;9.174;2023-05-07T01:16:43;16.60;99.90
9915;DHT22;4996;48.746;9.174;2023-05-07T01:19:11;16.60;99.90
9915;DHT22;4996;48.746;9.174;2023-05-07T01:21:39;16.60;99.90
9915;DHT22;4996;48.746;9.174;2023-05-07T01:24:08;16.60;99.90
9915;DHT22;4996;48.746;9.174;2023-05-07T01:26:34;16.60;99.90
9915;DHT22;4996;48.746;9.174;2023-05-07T01:29:00;16.60;99.90
9915;DHT22;4996;48.746;9.174;2023-05-07T01:31:26;16.50;99.90
9915;DHT22;4996;48.746;9.174;2023-05-07T01:33:52;16.50;99.90
9915;DHT22;4996;48.746;9.174;2023-05-07T01:36:20;16.50;99.90
9915;DHT22;4996;48.746;9.174;2023-05-07T01:38:48;16.50;99.90
9915;DHT22;4996;48.746;9.174;2023-05-07T01:41:13;16.40;99.90
9915;DHT22;4996;48.746;9.174;2023-05-07T01:43:40;16.40;99.90
9915;DHT22;4996;48.746;9.174;2023-05-07T01:46:07;16.40;99.90
9915;DHT22;4996;48.746;9.174;2023-05-07T01:48:35;16.40;99.90
9915;DHT22;4996;48.746;9.174;2023-05-07T01:51:01;16.40;99.90
9915;DHT22;4996;48.746;9.174;2023-05-07T01:53:27;16.30;99.90
9915;DHT22;4996;48.746;9.174;2023-05-07T01:55:53;16.30;99.90
9915;DHT22;4996;48.746;9.174;2023-05-07T01:58:19;16.30;99.90
9915;DHT22;4996;48.746;9.174;2023-05-07T02:00:44;16.30;99.90
9915;DHT22;4996;48.746;9.174;2023-05-07T02:03:10;16.30;99.90
9915;DHT22;4996;48.746;9.174;2023-05-07T02:05:35;16.30;99.90
9915;DHT22;4996;48.746;9.174;2023-05-07T02:08:01;16.20;99.90
9915;DHT22;4996;48.746;9.174;2023-05-07T02:10:26;16.30;99.90
9915;DHT22;4996;48.746;9.174;2023-05-07T02:12:52;16.30;99.90
9915;DHT22;4996;48.746;9.174;2023-05-07T02:15:18;16.30;99.90
9915;DHT22;4996;48.746;9.174;2023-05-07T02:18:03;16.20;99.90
9915;DHT22;4996;48.746;9.174;2023-05-07T02:20:29;16.20;99.90
9915;DHT22;4996;48.746;9.174;2023-05-07T02:22:54;16.20;99.90
9915;DHT22;4996;48.746;9.174;2023-05-07T02:25:20;16.20;99.90
9915;DHT22;4996;48.746;9.174;2023-05-07T02:27:46;16.20;99.90
9915;DHT22;4996;48.746;9.174;2023-05-07T02:30:11;16.20;99.90
9915;DHT22;4996;48.746;9.174;2023-05-07T02:32:37;16.30;99.90
9915;DHT22;4996;48.746;9.174;2023-05-07T02:35:03;16.20;99.90
9915;DHT22;4996;48.746;9.174;2023-05-07T02:37:28;16.20;99.90
9915;DHT22;4996;48.746;9.174;2023-05-07T02:39:54;16.20;99.90
9915;DHT22;4996;48.746;9.174;2023-05-07T02:42:19;16.20;99.90
9915;DHT22;4996;48.746;9.174;2023-05-07T02:44:45;16.20;99.90
9915;DHT22;4996;48.746;9.174;2023-05-07T02:47:10;16.20;99.90
9915;DHT22;4996;48.746;9.174;2023-05-07T02:49:38;16.20;99.90
9915;DHT22;4996;48.746;9.174;2023-05-07T02:52:03;16.10;99.90
9915;DHT22;4996;48.746;9.174;2023-05-07T02:54:29;16.10;99.90
9915;DHT22;4996;48.746;9.174;2023-05-07T02:56:55;16.00;99.90
9915;DHT22;4996;48.746;9.174;2023-05-07T02:59:20;16.00;99.90
9915;DHT22;4996;48.746;9.174;2023-05-07T03:01:46;16.00;99.90
9915;DHT22;4996;48.746;9.174;2023-05-07T03:04:11;16.00;99.90
9915;DHT22;4996;48.746;9.174;2023-05-07T03:06:37;16.00;99.90
9915;DHT22;4996;48.746;9.174;2023-05-07T03:09:02;15.90;99.90
9915;DHT22;4996;48.746;9.174;2023-05-07T03:11:28;15.90;99.90
9915;DHT22;4996;48.746;9.174;2023-05-07T03:13:54;15.80;99.90
9915;DHT22;4996;48.746;9.174;2023-05-07T03:16:19;15.80;99.90
9915;DHT22;4996;48.746;9.174;2023-05-07T03:18:45;15.70;99.90
9915;DHT22;4996;48.746;9.174;2023-05-07T03:21:10;15.70;99.90
9915;DHT22;4996;48.746;9.174;2023-05-07T03:23:36;15.60;99.90
9915;DHT22;4996;48.746;9.174;2023-05-07T03:26:01;15.60;99.90
9915;DHT22;4996;48.746;9.174;2023-05-07T03:28:27;15.50;99.90
9915;DHT22;4996;48.746;9.174;2023-05-07T03:30:52;15.50;99.90
9915;DHT22;4996;48.746;9.174;2023-05-07T03:33:18;15.60;99.90
9915;DHT22;4996;48.746;9.174;2023-05-07T03:35:43;15.60;99.90
9915;DHT22;4996;48.746;9.174;2023-05-07T03:38:09;15.60;99.90
9915;DHT22;4996;48.746;9.174;2023-05-07T03:40:35;15.60;99.90
9915;DHT22;4996;48.746;9.174;2023-05-07T03:43:00;15.60;99.90
9915;DHT22;4996;48.746;9.174;2023-05-07T03:45:26;15.60;99.90
9915;DHT22;4996;48.746;9.174;2023-05-07T03:47:51;15.60;99.90
9915;DHT22;4996;48.746;9.174;2023-05-07T03:50:17;15.50;99.90
9915;DHT22;4996;48.746;9.174;2023-05-07T03:52:43;15.60;99.90
9915;DHT22;4996;48.746;9.174;2023-05-07T03:55:09;15.60;99.90
9915;DHT22;4996;48.746;9.174;2023-05-07T03:57:35;15.60;99.90
9915;DHT22;4996;48.746;9.174;2023-05-07T04:00:00;15.70;99.90
9915;DHT22;4996;48.746;9.174;2023-05-07T04:02:26;15.60;99.90
9915;DHT22;4996;48.746;9.174;2023-05-07T04:04:52;15.60;99.90
9915;DHT22;4996;48.746;9.174;2023-05-07T04:07:17;15.50;99.90
9915;DHT22;4996;48.746;9.174;2023-05-07T04:09:43;15.40;99.90
9915;DHT22;4996;48.746;9.174;2023-05-07T04:12:08;15.30;99.90
9915;DHT22;4996;48.746;9.174;2023-05-07T04:14:34;15.30;99.90
9915;DHT22;4996;48.746;9.174;2023-05-07T04:16:59;15.30;99.90
9915;DHT22;4996;48.746;9.174;2023-05-07T04:19:25;15.30;99.90
9915;DHT22;4996;48.746;9.174;2023-05-07T04:21:50;15.30;99.90
9915;DHT22;4996;48.746;9.174;2023-05-07T04:24:16;15.30;99.90
9915;DHT22;4996;48.746;9.174;2023-05-07T04:26:41;15.20;99.90
9915;DHT22;4996;48.746;9.174;2023-05-07T04:29:07;15.20;99.90
9915;DHT22;4996;48.746;9.174;2023-05-07T04:31:33;15.20;99.90
9915;DHT22;4996;48.746;9.174;2023-05-07T04:33:58;15.20;99.90
9915;DHT22;4996;48.746;9.174;2023-05-07T04:36:24;15.30;99.90
9915;DHT22;4996;48.746;9.174;2023-05-07T04:38:53;15.30;99.90
9915;DHT22;4996;48.746;9.174;2023-05-07T04:41:19;15.30;99.90
9915;DHT22;4996;48.746;9.174;2023-05-07T04:43:44;15.30;99.90
9915;DHT22;4996;48.746;9.174;2023-05-07T04:46:10;15.30;99.90
9915;DHT22;4996;48.746;9.174;2023-05-07T04:48:36;15.30;99.90
9915;DHT22;4996;48.746;9.174;2023-05-07T04:51:02;15.30;99.90
9915;DHT22;4996;48.746;9.174;2023-05-07T04:53:27;15.30;99.90
9915;DHT22;4996;48.746;9.174;2023-05-07T04:55:56;15.40;99.90
9915;DHT22;4996;48.746;9.174;2023-05-07T04:58:22;15.40;99.90
9915;DHT22;4996;48.746;9.174;2023-05-07T05:00:48;15.30;99.90
9915;DHT22;4996;48.746;9.174;2023-05-07T05:03:13;15.30;99.90
9915;DHT22;4996;48.746;9.174;2023-05-07T05:05:39;15.30;99.90
9915;DHT22;4996;48.746;9.174;2023-05-07T05:08:04;15.30;99.90
9915;DHT22;4996;48.746;9.174;2023-05-07T05:10:30;15.30;99.90
9915;DHT22;4996;48.746;9.174;2023-05-07T05:12:55;15.30;99.90
9915;DHT22;4996;48.746;9.174;2023-05-07T05:15:21;15.30;99.90
9915;DHT22;4996;48.746;9.174;2023-05-07T05:17:47;15.30;99.90
9915;DHT22;4996;48.746;9.174;2023-05-07T05:20:12;15.30;99.90
9915;DHT22;4996;48.746;9.174;2023-05-07T05:22:38;15.30;99.90
9915;DHT22;4996;48.746;9.174;2023-05-07T05:25:04;15.50;99.90
9915;DHT22;4996;48.746;9.174;2023-05-07T05:27:29;15.50;99.90
9915;DHT22;4996;48.746;9.174;2023-05-07T05:29:55;15.60;99.90
9915;DHT22;4996;48.746;9.174;2023-05-07T05:32:21;15.70;99.90
9915;DHT22;4996;48.746;9.174;2023-05-07T05:34:48;15.90;99.90
9915;DHT22;4996;48.746;9.174;2023-05-07T05:37:13;16.00;99.90
9915;DHT22;4996;48.746;9.174;2023-05-07T05:39:39;16.10;99.90
9915;DHT22;4996;48.746;9.174;2023-05-07T05:42:04;16.10;99.90
9915;DHT22;4996;48.746;9.174;2023-05-07T05:44:30;16.30;99.90
9915;DHT22;4996;48.746;9.174;2023-05-07T05:46:55;16.40;99.90
9915;DHT22;4996;48.746;9.174;2023-05-07T05:49:22;16.50;99.90
9915;DHT22;4996;48.746;9.174;2023-05-07T05:51:48;16.60;99.90
9915;DHT22;4996;48.746;9.174;2023-05-07T05:54:14;16.70;99.90
9915;DHT22;4996;48.746;9.174;2023-05-07T05:56:40;16.80;99.90
9915;DHT22;4996;48.746;9.174;2023-05-07T05:59:06;16.90;99.90
9915;DHT22;4996;48.746;9.174;2023-05-07T06:01:31;16.90;99.90
9915;DHT22;4996;48.746;9.174;2023-05-07T06:03:57;16.90;99.90
9915;DHT22;4996;48.746;9.174;2023-05-07T06:06:22;16.90;99.90
9915;DHT22;4996;48.746;9.174;2023-05-07T06:08:48;17.10;99.90
9915;DHT22;4996;48.746;9.174;2023-05-07T06:11:14;17.20;99.90
9915;DHT22;4996;48.746;9.174;2023-05-07T06:13:39;17.20;99.90
9915;DHT22;4996;48.746;9.174;2023-05-07T06:16:05;17.30;99.90
9915;DHT22;4996;48.746;9.174;2023-05-07T06:18:31;17.40;99.90
9915;DHT22;4996;48.746;9.174;2023-05-07T06:20:56;17.50;99.90
9915;DHT22;4996;48.746;9.174;2023-05-07T06:23:22;17.50;99.90
9915;DHT22;4996;48.746;9.174;2023-05-07T06:25:51;17.50;99.90
9915;DHT22;4996;48.746;9.174;2023-05-07T06:28:17;17.60;99.90
9915;DHT22;4996;48.746;9.174;2023-05-07T06:30:42;17.80;99.90
9915;DHT22;4996;48.746;9.174;2023-05-07T06:33:08;17.80;99.90
9915;DHT22;4996;48.746;9.174;2023-05-07T06:35:33;17.90;99.90
9915;DHT22;4996;48.746;9.174;2023-05-07T06:38:00;17.80;99.90
9915;DHT22;4996;48.746;9.174;2023-05-07T06:40:26;17.80;99.90
9915;DHT22;4996;48.746;9.174;2023-05-07T06:42:51;17.70;99.90
9915;DHT22;4996;48.746;9.174;2023-05-07T06:45:17;17.60;99.90
9915;DHT22;4996;48.746;9.174;2023-05-07T06:47:42;17.60;99.90
9915;DHT22;4996;48.746;9.174;2023-05-07T06:50:08;17.50;99.90
9915;DHT22;4996;48.746;9.174;2023-05-07T06:52:35;17.50;99.90
9915;DHT22;4996;48.746;9.174;2023-05-07T06:55:00;17.40;99.90
9915;DHT22;4996;48.746;9.174;2023-05-07T06:57:26;17.50;99.90
9915;DHT22;4996;48.746;9.174;2023-05-07T06:59:51;17.70;99.90
9915;DHT22;4996;48.746;9.174;2023-05-07T07:02:17;17.80;99.90
9915;DHT22;4996;48.746;9.174;2023-05-07T07:04:42;17.90;99.90
9915;DHT22;4996;48.746;9.174;2023-05-07T07:07:08;17.90;99.90
9915;DHT22;4996;48.746;9.174;2023-05-07T07:09:34;18.10;99.90
9915;DHT22;4996;48.746;9.174;2023-05-07T07:11:59;18.30;99.90
9915;DHT22;4996;48.746;9.174;2023-05-07T07:14:25;18.20;99.90
9915;DHT22;4996;48.746;9.174;2023-05-07T07:16:50;18.30;99.90
9915;DHT22;4996;48.746;9.174;2023-05-07T07:19:16;18.50;99.90
9915;DHT22;4996;48.746;9.174;2023-05-07T07:21:42;18.70;99.90
9915;DHT22;4996;48.746;9.174;2023-05-07T07:24:07;18.90;99.90
9915;DHT22;4996;48.746;9.174;2023-05-07T07:26:33;19.10;99.90
9915;DHT22;4996;48.746;9.174;2023-05-07T07:28:58;19.20;99.90
9915;DHT22;4996;48.746;9.174;2023-05-07T07:31:24;19.20;99.90
9915;DHT22;4996;48.746;9.174;2023-05-07T07:33:49;19.40;99.90
9915;DHT22;4996;48.746;9.174;2023-05-07T07:36:15;19.50;99.90
9915;DHT22;4996;48.746;9.174;2023-05-07T07:38:41;19.70;99.90
9915;DHT22;4996;48.746;9.174;2023-05-07T07:41:08;19.90;99.90
9915;DHT22;4996;48.746;9.174;2023-05-07T07:43:34;20.00;99.90
9915;DHT22;4996;48.746;9.174;2023-05-07T07:46:00;20.20;99.90
9915;DHT22;4996;48.746;9.174;2023-05-07T07:48:26;20.30;99.90
9915;DHT22;4996;48.746;9.174;2023-05-07T07:50:51;20.40;99.90
9915;DHT22;4996;48.746;9.174;2023-05-07T07:53:17;20.50;99.90
9915;DHT22;4996;48.746;9.174;2023-05-07T07:55:43;20.70;99.90
9915;DHT22;4996;48.746;9.174;2023-05-07T07:58:09;20.90;99.90
9915;DHT22;4996;48.746;9.174;2023-05-07T08:00:34;21.20;99.90
9915;DHT22;4996;48.746;9.174;2023-05-07T08:03:00;21.20;99.90
9915;DHT22;4996;48.746;9.174;2023-05-07T08:05:25;21.20;99.90
9915;DHT22;4996;48.746;9.174;2023-05-07T08:07:51;21.40;99.90
9915;DHT22;4996;48.746;9.174;2023-05-07T08:10:18;21.50;99.90
9915;DHT22;4996;48.746;9.174;2023-05-07T08:12:50;21.70;99.90
9915;DHT22;4996;48.746;9.174;2023-05-07T08:15:16;21.90;99.90
9915;DHT22;4996;48.746;9.174;2023-05-07T08:17:41;21.90;99.90
9915;DHT22;4996;48.746;9.174;2023-05-07T08:20:07;22.20;99.90
9915;DHT22;4996;48.746;9.174;2023-05-07T08:22:36;22.10;99.90
9915;DHT22;4996;48.746;9.174;2023-05-07T08:25:02;22.20;99.90
9915;DHT22;4996;48.746;9.174;2023-05-07T08:27:28;22.40;99.90
9915;DHT22;4996;48.746;9.174;2023-05-07T08:29:54;22.70;99.90
9915;DHT22;4996;48.746;9.174;2023-05-07T08:32:20;23.00;99.90
9915;DHT22;4996;48.746;9.174;2023-05-07T08:34:45;23.20;99.90
9915;DHT22;4996;48.746;9.174;2023-05-07T08:37:11;23.70;99.90
9915;DHT22;4996;48.746;9.174;2023-05-07T08:39:37;23.80;99.90
9915;DHT22;4996;48.746;9.174;2023-05-07T08:42:04;23.90;99.90
9915;DHT22;4996;48.746;9.174;2023-05-07T08:44:35;23.90;99.90
9915;DHT22;4996;48.746;9.174;2023-05-07T08:47:02;23.90;99.90
9915;DHT22;4996;48.746;9.174;2023-05-07T08:49:28;23.90;99.90
9915;DHT22;4996;48.746;9.174;2023-05-07T08:51:54;24.00;99.90
9915;DHT22;4996;48.746;9.174;2023-05-07T08:54:21;24.10;99.90
9915;DHT22;4996;48.746;9.174;2023-05-07T08:56:46;24.00;99.90
9915;DHT22;4996;48.746;9.174;2023-05-07T08:59:12;23.80;99.90
9915;DHT22;4996;48.746;9.174;2023-05-07T09:01:37;24.20;99.90
9915;DHT22;4996;48.746;9.174;2023-05-07T09:04:04;24.10;99.90
9915;DHT22;4996;48.746;9.174;2023-05-07T09:06:29;24.50;99.90
9915;DHT22;4996;48.746;9.174;2023-05-07T09:08:55;24.60;99.90
9915;DHT22;4996;48.746;9.174;2023-05-07T09:11:22;24.40;99.90
9915;DHT22;4996;48.746;9.174;2023-05-07T09:13:48;24.70;99.90
9915;DHT22;4996;48.746;9.174;2023-05-07T09:16:15;24.90;99.90
9915;DHT22;4996;48.746;9.174;2023-05-07T09:18:42;25.20;99.90
9915;DHT22;4996;48.746;9.174;2023-05-07T09:21:10;25.50;99.90
9915;DHT22;4996;48.746;9.174;2023-05-07T09:23:36;25.60;99.90
9915;DHT22;4996;48.746;9.174;2023-05-07T09:26:02;25.90;99.90
9915;DHT22;4996;48.746;9.174;2023-05-07T09:28:27;25.70;99.90
9915;DHT22;4996;48.746;9.174;2023-05-07T09:30:53;25.80;99.90
9915;DHT22;4996;48.746;9.174;2023-05-07T09:33:18;25.60;99.90
9915;DHT22;4996;48.746;9.174;2023-05-07T09:35:44;25.70;99.90
9915;DHT22;4996;48.746;9.174;2023-05-07T09:38:10;25.50;99.90
9915;DHT22;4996;48.746;9.174;2023-05-07T09:40:35;25.40;99.90
9915;DHT22;4996;48.746;9.174;2023-05-07T09:43:11;25.30;99.90
9915;DHT22;4996;48.746;9.174;2023-05-07T09:45:38;25.30;99.90
9915;DHT22;4996;48.746;9.174;2023-05-07T09:48:05;25.30;99.90
9915;DHT22;4996;48.746;9.174;2023-05-07T09:50:42;25.40;99.90
9915;DHT22;4996;48.746;9.174;2023-05-07T09:53:14;25.30;99.90
9915;DHT22;4996;48.746;9.174;2023-05-07T09:55:40;25.00;99.90
9915;DHT22;4996;48.746;9.174;2023-05-07T09:58:06;25.20;99.90
9915;DHT22;4996;48.746;9.174;2023-05-07T10:00:32;25.10;99.90
9915;DHT22;4996;48.746;9.174;2023-05-07T10:02:58;25.20;99.90
9915;DHT22;4996;48.746;9.174;2023-05-07T10:05:26;25.40;99.90
9915;DHT22;4996;48.746;9.174;2023-05-07T10:07:52;25.30;99.90
9915;DHT22;4996;48.746;9.174;2023-05-07T10:10:18;25.00;99.90
9915;DHT22;4996;48.746;9.174;2023-05-07T10:12:45;25.10;99.90
9915;DHT22;4996;48.746;9.174;2023-05-07T10:15:11;24.90;99.90
9915;DHT22;4996;48.746;9.174;2023-05-07T10:17:38;25.00;99.90
9915;DHT22;4996;48.746;9.174;2023-05-07T10:20:05;25.40;99.90
9915;DHT22;4996;48.746;9.174;2023-05-07T10:22:45;25.60;99.90
9915;DHT22;4996;48.746;9.174;2023-05-07T10:25:22;25.80;99.90
9915;DHT22;4996;48.746;9.174;2023-05-07T10:27:50;25.90;99.90
9915;DHT22;4996;48.746;9.174;2023-05-07T10:30:38;26.20;99.60
9915;DHT22;4996;48.746;9.174;2023-05-07T10:33:07;26.10;99.20
9915;DHT22;4996;48.746;9.174;2023-05-07T10:35:42;25.60;99.30
9915;DHT22;4996;48.746;9.174;2023-05-07T10:38:08;25.50;99.70
9915;DHT22;4996;48.746;9.174;2023-05-07T10:40:34;25.50;99.50
9915;DHT22;4996;48.746;9.174;2023-05-07T10:43:02;25.60;99.90
9915;DHT22;4996;48.746;9.174;2023-05-07T10:45:29;25.90;99.60
9915;DHT22;4996;48.746;9.174;2023-05-07T10:48:12;26.20;99.00
9915;DHT22;4996;48.746;9.174;2023-05-07T10:50:42;26.20;98.80
9915;DHT22;4996;48.746;9.174;2023-05-07T10:53:28;26.10;98.70
9915;DHT22;4996;48.746;9.174;2023-05-07T10:58:42;26.00;99.30
9915;DHT22;4996;48.746;9.174;2023-05-07T11:01:07;26.30;98.90
9915;DHT22;4996;48.746;9.174;2023-05-07T11:03:33;26.80;98.20
9915;DHT22;4996;48.746;9.174;2023-05-07T11:06:15;27.00;97.30
9915;DHT22;4996;48.746;9.174;2023-05-07T11:08:59;26.90;96.10
9915;DHT22;4996;48.746;9.174;2023-05-07T11:11:47;27.20;94.70
9915;DHT22;4996;48.746;9.174;2023-05-07T11:14:14;27.40;95.20
9915;DHT22;4996;48.746;9.174;2023-05-07T11:16:41;27.70;95.20
9915;DHT22;4996;48.746;9.174;2023-05-07T11:19:08;27.60;95.10
9915;DHT22;4996;48.746;9.174;2023-05-07T11:21:41;27.30;95.10
9915;DHT22;4996;48.746;9.174;2023-05-07T11:24:08;27.10;95.40
9915;DHT22;4996;48.746;9.174;2023-05-07T11:26:50;26.80;95.40
9915;DHT22;4996;48.746;9.174;2023-05-07T11:29:20;26.70;95.80
9915;DHT22;4996;48.746;9.174;2023-05-07T11:31:50;26.50;94.80
9915;DHT22;4996;48.746;9.174;2023-05-07T11:34:24;26.40;94.90
9915;DHT22;4996;48.746;9.174;2023-05-07T11:36:50;26.40;94.70
9915;DHT22;4996;48.746;9.174;2023-05-07T11:39:30;25.90;95.60
9915;DHT22;4996;48.746;9.174;2023-05-07T11:42:01;25.80;95.80
9915;DHT22;4996;48.746;9.174;2023-05-07T11:44:43;25.60;95.70
9915;DHT22;4996;48.746;9.174;2023-05-07T11:47:12;25.80;95.90
9915;DHT22;4996;48.746;9.174;2023-05-07T11:49:42;25.70;96.30
9915;DHT22;4996;48.746;9.174;2023-05-07T11:52:07;25.80;95.60
9915;DHT22;4996;48.746;9.174;2023-05-07T11:54:37;25.90;95.20
9915;DHT22;4996;48.746;9.174;2023-05-07T11:57:02;25.90;95.20
9915;DHT22;4996;48.746;9.174;2023-05-07T11:59:28;25.80;95.30
9915;DHT22;4996;48.746;9.174;2023-05-07T12:01:57;25.70;94.00
9915;DHT22;4996;48.746;9.174;2023-05-07T12:04:24;25.70;94.10
9915;DHT22;4996;48.746;9.174;2023-05-07T12:06:53;25.70;94.20
9915;DHT22;4996;48.746;9.174;2023-05-07T12:09:21;25.70;94.00
9915;DHT22;4996;48.746;9.174;2023-05-07T12:11:46;25.60;94.50
9915;DHT22;4996;48.746;9.174;2023-05-07T12:14:12;25.20;96.20
9915;DHT22;4996;48.746;9.174;2023-05-07T12:16:39;25.00;97.80
9915;DHT22;4996;48.746;9.174;2023-05-07T12:19:06;24.40;98.90
9915;DHT22;4996;48.746;9.174;2023-05-07T12:21:33;23.90;99.90
9915;DHT22;4996;48.746;9.174;2023-05-07T12:23:59;23.50;99.90
9915;DHT22;4996;48.746;9.174;2023-05-07T12:26:24;22.90;95.50
9915;DHT22;4996;48.746;9.174;2023-05-07T12:28:50;22.60;94.50
9915;DHT22;4996;48.746;9.174;2023-05-07T12:31:16;22.30;95.50
9915;DHT22;4996;48.746;9.174;2023-05-07T12:33:41;21.90;98.20
9915;DHT22;4996;48.746;9.174;2023-05-07T12:36:07;21.60;99.90
9915;DHT22;4996;48.746;9.174;2023-05-07T12:38:37;21.20;99.90
9915;DHT22;4996;48.746;9.174;2023-05-07T12:41:03;20.60;99.90
9915;DHT22;4996;48.746;9.174;2023-05-07T12:43:29;19.40;99.90
9915;DHT22;4996;48.746;9.174;2023-05-07T12:45:57;17.70;99.90
9915;DHT22;4996;48.746;9.174;2023-05-07T12:48:23;16.40;99.90
9915;DHT22;4996;48.746;9.174;2023-05-07T12:50:53;15.60;99.90
9915;DHT22;4996;48.746;9.174;2023-05-07T12:53:21;15.30;99.90
9915;DHT22;4996;48.746;9.174;2023-05-07T12:55:49;15.10;99.90
9915;DHT22;4996;48.746;9.174;2023-05-07T12:58:29;15.20;99.90
9915;DHT22;4996;48.746;9.174;2023-05-07T13:00:55;15.30;99.90
9915;DHT22;4996;48.746;9.174;2023-05-07T13:03:34;15.50;99.90
9915;DHT22;4996;48.746;9.174;2023-05-07T13:06:06;15.50;99.90
9915;DHT22;4996;48.746;9.174;2023-05-07T13:08:37;15.60;99.90
9915;DHT22;4996;48.746;9.174;2023-05-07T13:11:03;15.60;99.90
9915;DHT22;4996;48.746;9.174;2023-05-07T13:13:34;15.50;99.90
9915;DHT22;4996;48.746;9.174;2023-05-07T13:16:00;15.60;99.90
9915;DHT22;4996;48.746;9.174;2023-05-07T13:18:26;15.80;99.90
9915;DHT22;4996;48.746;9.174;2023-05-07T13:20:53;15.90;99.90
9915;DHT22;4996;48.746;9.174;2023-05-07T13:23:19;15.90;99.90
9915;DHT22;4996;48.746;9.174;2023-05-07T13:25:44;15.90;99.90
9915;DHT22;4996;48.746;9.174;2023-05-07T13:28:10;15.90;99.90
9915;DHT22;4996;48.746;9.174;2023-05-07T13:30:36;16.00;99.90
9915;DHT22;4996;48.746;9.174;2023-05-07T13:33:01;16.00;99.90
9915;DHT22;4996;48.746;9.174;2023-05-07T13:35:27;16.00;99.90
9915;DHT22;4996;48.746;9.174;2023-05-07T13:37:53;16.00;99.90
9915;DHT22;4996;48.746;9.174;2023-05-07T13:40:20;16.10;99.90
9915;DHT22;4996;48.746;9.174;2023-05-07T13:42:45;16.10;99.90
9915;DHT22;4996;48.746;9.174;2023-05-07T13:45:11;16.10;99.90
9915;DHT22;4996;48.746;9.174;2023-05-07T13:47:42;15.90;99.90
9915;DHT22;4996;48.746;9.174;2023-05-07T13:50:11;16.00;99.90
9915;DHT22;4996;48.746;9.174;2023-05-07T13:52:37;16.00;99.90
9915;DHT22;4996;48.746;9.174;2023-05-07T13:55:03;16.10;99.90
9915;DHT22;4996;48.746;9.174;2023-05-07T13:57:29;16.10;99.90
9915;DHT22;4996;48.746;9.174;2023-05-07T13:59:54;16.00;99.90
9915;DHT22;4996;48.746;9.174;2023-05-07T14:02:20;15.90;99.90
9915;DHT22;4996;48.746;9.174;2023-05-07T14:04:46;15.80;99.90
9915;DHT22;4996;48.746;9.174;2023-05-07T14:07:12;15.90;99.90
9915;DHT22;4996;48.746;9.174;2023-05-07T14:09:37;15.90;99.90
9915;DHT22;4996;48.746;9.174;2023-05-07T14:12:03;16.00;99.90
9915;DHT22;4996;48.746;9.174;2023-05-07T14:14:28;16.00;99.90
9915;DHT22;4996;48.746;9.174;2023-05-07T14:16:54;16.00;99.90
9915;DHT22;4996;48.746;9.174;2023-05-07T14:19:19;16.00;99.90
9915;DHT22;4996;48.746;9.174;2023-05-07T14:21:45;15.90;99.90
9915;DHT22;4996;48.746;9.174;2023-05-07T14:24:10;15.70;99.90
9915;DHT22;4996;48.746;9.174;2023-05-07T14:26:36;15.90;99.90
9915;DHT22;4996;48.746;9.174;2023-05-07T14:29:03;15.90;99.90
9915;DHT22;4996;48.746;9.174;2023-05-07T14:31:28;16.00;99.90
9915;DHT22;4996;48.746;9.174;2023-05-07T14:33:54;16.00;99.90
9915;DHT22;4996;48.746;9.174;2023-05-07T14:36:20;16.10;99.90
9915;DHT22;4996;48.746;9.174;2023-05-07T14:38:46;16.10;99.90
9915;DHT22;4996;48.746;9.174;2023-05-07T14:41:12;16.10;99.90
9915;DHT22;4996;48.746;9.174;2023-05-07T14:43:37;16.10;99.90
9915;DHT22;4996;48.746;9.174;2023-05-07T14:46:03;16.40;99.90
9915;DHT22;4996;48.746;9.174;2023-05-07T14:48:29;16.50;99.90
9915;DHT22;4996;48.746;9.174;2023-05-07T14:50:54;16.40;99.90
9915;DHT22;4996;48.746;9.174;2023-05-07T14:53:20;16.30;99.90
9915;DHT22;4996;48.746;9.174;2023-05-07T14:55:46;16.40;99.90
9915;DHT22;4996;48.746;9.174;2023-05-07T14:58:12;16.40;99.90
9915;DHT22;4996;48.746;9.174;2023-05-07T15:00:37;16.20;99.90
9915;DHT22;4996;48.746;9.174;2023-05-07T15:03:06;16.50;99.90
9915;DHT22;4996;48.746;9.174;2023-05-07T15:05:33;16.50;99.90
9915;DHT22;4996;48.746;9.174;2023-05-07T15:07:58;16.50;99.90
9915;DHT22;4996;48.746;9.174;2023-05-07T15:10:24;16.70;99.90
9915;DHT22;4996;48.746;9.174;2023-05-07T15:12:50;16.70;99.90
9915;DHT22;4996;48.746;9.174;2023-05-07T15:15:15;16.70;99.90
9915;DHT22;4996;48.746;9.174;2023-05-07T15:17:41;16.70;99.90
9915;DHT22;4996;48.746;9.174;2023-05-07T15:20:07;16.80;99.90
9915;DHT22;4996;48.746;9.174;2023-05-07T15:22:33;16.90;99.90
9915;DHT22;4996;48.746;9.174;2023-05-07T15:24:59;17.00;99.90
9915;DHT22;4996;48.746;9.174;2023-05-07T15:27:24;17.10;99.90
9915;DHT22;4996;48.746;9.174;2023-05-07T15:29:50;17.10;99.90
9915;DHT22;4996;48.746;9.174;2023-05-07T15:32:16;17.20;99.90
9915;DHT22;4996;48.746;9.174;2023-05-07T15:34:41;17.30;99.90
9915;DHT22;4996;48.746;9.174;2023-05-07T15:37:07;17.40;99.90
9915;DHT22;4996;48.746;9.174;2023-05-07T15:39:33;17.50;99.90
9915;DHT22;4996;48.746;9.174;2023-05-07T15:41:58;17.30;99.90
9915;DHT22;4996;48.746;9.174;2023-05-07T15:44:24;17.20;99.90
9915;DHT22;4996;48.746;9.174;2023-05-07T15:46:53;16.70;99.90
9915;DHT22;4996;48.746;9.174;2023-05-07T15:49:18;16.70;99.90
9915;DHT22;4996;48.746;9.174;2023-05-07T15:51:44;16.90;99.90
9915;DHT22;4996;48.746;9.174;2023-05-07T15:54:09;17.00;99.90
9915;DHT22;4996;48.746;9.174;2023-05-07T15:56:35;17.20;99.90
9915;DHT22;4996;48.746;9.174;2023-05-07T15:59:00;17.30;99.90
9915;DHT22;4996;48.746;9.174;2023-05-07T16:01:27;17.40;99.90